Tropical Cyclones
[Index]
Main Index Home Page Stock Weather Photos Extreme Storms Discussion Storm News and Storm Chasing Reports Tropical Cyclones / Hurricanes / Typhoons Weather Data and Links Wild Fires / Bushfires Weather Observation Techniques Weather Picture Catalogue Tornado Pictures and Reports Stock Video Footage and DVDs for sale
Season 1980-1981 Tropical Cyclone FREDA Track Map
Season 1980-1981 Summaries: [BoM-AU] [JTWC-AU] [JTWC-SIO] [JTWC-SPAC] [JTWC-SH]
<<- Previous TC | JTWC 1980-1981 Season | Next TC ->>

click for intensity scale information  Lat/long Grid: Show Hide

 Date Labels: Show Hide

Joint Typhoon Warning Centre Cyclone Data

Name: FREDA

25 Feb 1981 18:00 UTC to 08 Mar 1981 06:00 UTC

    date/time    lat    long     hPa   cat  kts
1981-02-25 18   15.0   145.0                  25          
1981-02-26 00   15.2   145.3                  25          
1981-02-26 06   15.6   146.0                  30          
1981-02-26 12   16.1   147.0                  35          
1981-02-26 18   16.8   148.2            1     40          
1981-02-27 00   17.6   149.7            1     45          
1981-02-27 06   18.4   151.0            1     50          
1981-02-27 12   19.1   151.9            2     55          
1981-02-27 18   19.8   152.7            2     55          
1981-02-28 00   20.5   153.5            2     55          
1981-02-28 06   21.2   154.2            2     60          
1981-02-28 12   21.8   155.8            2     55          
1981-02-28 18   22.2   157.2            1     50          
1981-03-01 00   22.4   156.6            1     50          
1981-03-01 06   22.3   155.9            1     45          
1981-03-01 12   21.8   156.1            1     45          
1981-03-01 18   21.3   156.4            1     40          
1981-03-02 00   21.1   156.6            1     40          
1981-03-02 06   20.8   156.9            1     40          
1981-03-02 12   20.6   157.1            1     40          
1981-03-02 18   20.3   157.5            1     45          
1981-03-03 00   19.7   158.1            1     45          
1981-03-03 06   19.0   158.7            1     45          
1981-03-03 12   18.4   159.2            1     45          
1981-03-03 18   17.9   159.8            1     50          
1981-03-04 00   17.7   160.5            1     50          
1981-03-04 06   17.7   161.1            2     55          
1981-03-04 12   17.7   161.4            2     60          
1981-03-04 18   17.8   161.7            2     65          
1981-03-05 00   17.9   161.9            2     65          
1981-03-05 06   18.1   162.2            2     65          
1981-03-05 12   18.3   162.5            2     65          
1981-03-05 18   18.7   162.8            2     65          
1981-03-06 00   19.2   163.3            2     70          
1981-03-06 06   19.9   163.8            3     75          
1981-03-06 12   20.6   164.2            2     70          
1981-03-06 18   21.7   164.7            2     65          
1981-03-07 00   23.5   165.2            2     65          
1981-03-07 06   25.4   165.7            2     60          
1981-03-07 12   27.1   166.2            2     55          
1981-03-07 18   28.8   166.7            1     45          
1981-03-08 00   30.2   167.2            1     40          
1981-03-08 06   31.4   167.6                  30          
Winds are 1-min average.

Tropical cyclone tracks developed by Michael Bath using data from the Joint Typhoon Warning Centre Best Tracks and Google Maps.


[Australian Severe Weather index] [Copyright Notice] [Email Contacts] [Search This Site] [Privacy Policy]
Document: tropical_cyclone_freda.htm Updated: 18 September 2016